sensor_id;sensor_type;location;lat;lon;timestamp;pressure;altitude;pressure_sealevel;temperature;humidity
64933;BME280;51446;53.850;10.662;2023-11-22T00:01:50;102789.31;;;0.71;100.00
64933;BME280;51446;53.850;10.662;2023-11-22T00:04:15;102788.28;;;0.68;100.00
64933;BME280;51446;53.850;10.662;2023-11-22T00:06:42;102786.22;;;0.64;100.00
64933;BME280;51446;53.850;10.662;2023-11-22T00:09:07;102788.16;;;0.67;100.00
64933;BME280;51446;53.850;10.662;2023-11-22T00:11:33;102778.31;;;0.63;100.00
64933;BME280;51446;53.850;10.662;2023-11-22T00:13:58;102786.91;;;0.72;100.00
64933;BME280;51446;53.850;10.662;2023-11-22T00:16:23;102787.53;;;0.69;100.00
64933;BME280;51446;53.850;10.662;2023-11-22T00:18:48;102791.78;;;0.69;100.00
64933;BME280;51446;53.850;10.662;2023-11-22T00:21:14;102789.84;;;0.66;100.00
64933;BME280;51446;53.850;10.662;2023-11-22T00:23:39;102796.41;;;0.63;100.00
64933;BME280;51446;53.850;10.662;2023-11-22T00:26:04;102793.91;;;0.54;100.00
64933;BME280;51446;53.850;10.662;2023-11-22T00:28:31;102796.22;;;0.51;100.00
64933;BME280;51446;53.850;10.662;2023-11-22T00:30:56;102785.53;;;0.57;100.00
64933;BME280;51446;53.850;10.662;2023-11-22T00:33:21;102777.25;;;0.50;100.00
64933;BME280;51446;53.850;10.662;2023-11-22T00:35:47;102781.91;;;0.55;100.00
64933;BME280;51446;53.850;10.662;2023-11-22T00:38:12;102794.19;;;0.57;100.00
64933;BME280;51446;53.850;10.662;2023-11-22T00:40:37;102788.97;;;0.47;100.00
64933;BME280;51446;53.850;10.662;2023-11-22T00:43:02;102790.88;;;0.39;100.00
64933;BME280;51446;53.850;10.662;2023-11-22T00:45:28;102792.22;;;0.25;100.00
64933;BME280;51446;53.850;10.662;2023-11-22T00:47:53;102798.34;;;0.36;100.00
64933;BME280;51446;53.850;10.662;2023-11-22T00:50:18;102793.25;;;0.27;100.00
64933;BME280;51446;53.850;10.662;2023-11-22T00:52:46;102799.00;;;0.14;100.00
64933;BME280;51446;53.850;10.662;2023-11-22T00:55:12;102812.72;;;0.24;100.00
64933;BME280;51446;53.850;10.662;2023-11-22T00:57:37;102815.91;;;0.21;100.00
64933;BME280;51446;53.850;10.662;2023-11-22T01:00:03;102819.47;;;0.32;100.00
64933;BME280;51446;53.850;10.662;2023-11-22T01:02:29;102824.50;;;0.30;100.00
64933;BME280;51446;53.850;10.662;2023-11-22T01:04:55;102829.88;;;0.23;100.00
64933;BME280;51446;53.850;10.662;2023-11-22T01:07:20;102832.38;;;0.32;100.00
64933;BME280;51446;53.850;10.662;2023-11-22T01:09:45;102841.38;;;0.27;100.00
64933;BME280;51446;53.850;10.662;2023-11-22T01:12:10;102841.22;;;0.25;100.00
64933;BME280;51446;53.850;10.662;2023-11-22T01:14:37;102839.75;;;0.19;100.00
64933;BME280;51446;53.850;10.662;2023-11-22T01:17:02;102835.88;;;0.13;100.00
64933;BME280;51446;53.850;10.662;2023-11-22T01:19:28;102848.03;;;0.06;100.00
64933;BME280;51446;53.850;10.662;2023-11-22T01:21:53;102845.66;;;-0.02;100.00
64933;BME280;51446;53.850;10.662;2023-11-22T01:24:19;102850.13;;;0.10;100.00
64933;BME280;51446;53.850;10.662;2023-11-22T01:26:44;102837.72;;;0.06;100.00
64933;BME280;51446;53.850;10.662;2023-11-22T01:29:09;102836.75;;;0.14;100.00
64933;BME280;51446;53.850;10.662;2023-11-22T01:31:37;102837.03;;;0.17;100.00
64933;BME280;51446;53.850;10.662;2023-11-22T01:34:02;102840.13;;;0.32;100.00
64933;BME280;51446;53.850;10.662;2023-11-22T01:36:29;102847.22;;;0.15;100.00
64933;BME280;51446;53.850;10.662;2023-11-22T01:38:54;102838.72;;;0.16;100.00
64933;BME280;51446;53.850;10.662;2023-11-22T01:41:20;102836.75;;;0.14;100.00
64933;BME280;51446;53.850;10.662;2023-11-22T01:43:46;102838.72;;;0.16;100.00
64933;BME280;51446;53.850;10.662;2023-11-22T01:46:21;102842.06;;;0.15;100.00
64933;BME280;51446;53.850;10.662;2023-11-22T01:48:48;102837.91;;;0.26;100.00
64933;BME280;51446;53.850;10.662;2023-11-22T01:51:13;102841.66;;;0.30;100.00
64933;BME280;51446;53.850;10.662;2023-11-22T01:53:39;102844.94;;;0.38;100.00
64933;BME280;51446;53.850;10.662;2023-11-22T01:56:04;102844.00;;;0.37;100.00
64933;BME280;51446;53.850;10.662;2023-11-22T01:58:30;102839.13;;;0.40;100.00
64933;BME280;51446;53.850;10.662;2023-11-22T02:00:56;102857.97;;;0.39;100.00
64933;BME280;51446;53.850;10.662;2023-11-22T02:03:23;102864.19;;;0.41;100.00
64933;BME280;51446;53.850;10.662;2023-11-22T02:05:48;102862.28;;;0.49;100.00
64933;BME280;51446;53.850;10.662;2023-11-22T02:08:14;102859.66;;;0.58;100.00
64933;BME280;51446;53.850;10.662;2023-11-22T02:10:40;102857.06;;;0.58;100.00
64933;BME280;51446;53.850;10.662;2023-11-22T02:13:06;102858.22;;;0.61;100.00
64933;BME280;51446;53.850;10.662;2023-11-22T02:15:36;102856.28;;;0.59;100.00
64933;BME280;51446;53.850;10.662;2023-11-22T02:18:02;102855.78;;;0.63;100.00
64933;BME280;51446;53.850;10.662;2023-11-22T02:20:29;102865.91;;;0.70;100.00
64933;BME280;51446;53.850;10.662;2023-11-22T02:22:55;102862.41;;;0.69;100.00
64933;BME280;51446;53.850;10.662;2023-11-22T02:25:20;102853.75;;;0.69;100.00
64933;BME280;51446;53.850;10.662;2023-11-22T02:27:46;102866.13;;;0.63;100.00
64933;BME280;51446;53.850;10.662;2023-11-22T02:30:11;102872.97;;;0.62;100.00
64933;BME280;51446;53.850;10.662;2023-11-22T02:32:37;102870.09;;;0.59;100.00
64933;BME280;51446;53.850;10.662;2023-11-22T02:35:04;102878.06;;;0.52;100.00
64933;BME280;51446;53.850;10.662;2023-11-22T02:37:33;102882.03;;;0.48;100.00
64933;BME280;51446;53.850;10.662;2023-11-22T02:40:18;102887.47;;;0.32;100.00
64933;BME280;51446;53.850;10.662;2023-11-22T02:42:47;102900.31;;;0.22;100.00
64933;BME280;51446;53.850;10.662;2023-11-22T02:45:13;102897.59;;;0.21;100.00
64933;BME280;51446;53.850;10.662;2023-11-22T02:47:39;102899.69;;;0.25;100.00
64933;BME280;51446;53.850;10.662;2023-11-22T02:50:05;102900.44;;;0.24;100.00
64933;BME280;51446;53.850;10.662;2023-11-22T02:52:31;102898.91;;;0.26;100.00
64933;BME280;51446;53.850;10.662;2023-11-22T02:54:56;102916.06;;;0.25;100.00
64933;BME280;51446;53.850;10.662;2023-11-22T02:57:21;102908.31;;;0.25;100.00
64933;BME280;51446;53.850;10.662;2023-11-22T02:59:46;102909.25;;;0.45;100.00
64933;BME280;51446;53.850;10.662;2023-11-22T03:02:12;102920.13;;;0.51;100.00
64933;BME280;51446;53.850;10.662;2023-11-22T03:04:37;102915.44;;;0.47;100.00
64933;BME280;51446;53.850;10.662;2023-11-22T03:07:03;102911.75;;;0.54;100.00
64933;BME280;51446;53.850;10.662;2023-11-22T03:09:30;102921.75;;;0.59;100.00
64933;BME280;51446;53.850;10.662;2023-11-22T03:11:55;102929.34;;;0.77;100.00
64933;BME280;51446;53.850;10.662;2023-11-22T03:14:20;102932.19;;;0.80;100.00
64933;BME280;51446;53.850;10.662;2023-11-22T03:16:47;102932.69;;;0.76;100.00
64933;BME280;51446;53.850;10.662;2023-11-22T03:19:12;102927.81;;;0.60;100.00
64933;BME280;51446;53.850;10.662;2023-11-22T03:21:39;102924.41;;;0.50;100.00
64933;BME280;51446;53.850;10.662;2023-11-22T03:24:04;102918.03;;;0.47;100.00
64933;BME280;51446;53.850;10.662;2023-11-22T03:26:30;102916.75;;;0.33;100.00
64933;BME280;51446;53.850;10.662;2023-11-22T03:28:55;102924.28;;;0.40;100.00
64933;BME280;51446;53.850;10.662;2023-11-22T03:31:20;102919.03;;;0.11;100.00
64933;BME280;51446;53.850;10.662;2023-11-22T03:33:46;102922.25;;;0.08;100.00
64933;BME280;51446;53.850;10.662;2023-11-22T03:36:12;102927.06;;;0.14;100.00
64933;BME280;51446;53.850;10.662;2023-11-22T03:38:39;102922.03;;;0.15;100.00
64933;BME280;51446;53.850;10.662;2023-11-22T03:41:04;102937.38;;;0.14;100.00
64933;BME280;51446;53.850;10.662;2023-11-22T03:43:30;102943.94;;;0.10;100.00
64933;BME280;51446;53.850;10.662;2023-11-22T03:45:55;102943.34;;;0.04;100.00
64933;BME280;51446;53.850;10.662;2023-11-22T03:48:20;102940.44;;;0.10;100.00
64933;BME280;51446;53.850;10.662;2023-11-22T03:50:47;102937.00;;;0.01;100.00
64933;BME280;51446;53.850;10.662;2023-11-22T03:53:12;102946.13;;;-0.03;100.00
64933;BME280;51446;53.850;10.662;2023-11-22T03:55:37;102943.31;;;-0.15;100.00
64933;BME280;51446;53.850;10.662;2023-11-22T03:58:03;102941.47;;;-0.16;100.00
64933;BME280;51446;53.850;10.662;2023-11-22T04:00:28;102947.28;;;-0.19;100.00
64933;BME280;51446;53.850;10.662;2023-11-22T04:02:53;102955.91;;;-0.18;100.00
64933;BME280;51446;53.850;10.662;2023-11-22T04:05:19;102955.41;;;-0.05;100.00
64933;BME280;51446;53.850;10.662;2023-11-22T04:07:45;102959.53;;;-0.16;100.00
64933;BME280;51446;53.850;10.662;2023-11-22T04:10:10;102968.84;;;-0.27;100.00
64933;BME280;51446;53.850;10.662;2023-11-22T04:12:35;102967.75;;;-0.20;100.00
64933;BME280;51446;53.850;10.662;2023-11-22T04:15:01;102961.81;;;-0.19;100.00
64933;BME280;51446;53.850;10.662;2023-11-22T04:17:26;102961.22;;;-0.16;100.00
64933;BME280;51446;53.850;10.662;2023-11-22T04:19:51;102956.19;;;0.13;100.00
64933;BME280;51446;53.850;10.662;2023-11-22T04:22:17;102953.47;;;-0.16;100.00
64933;BME280;51446;53.850;10.662;2023-11-22T04:24:43;102959.09;;;-0.21;100.00
64933;BME280;51446;53.850;10.662;2023-11-22T04:27:08;102954.25;;;-0.26;100.00
64933;BME280;51446;53.850;10.662;2023-11-22T04:29:33;102947.00;;;-0.30;100.00
64933;BME280;51446;53.850;10.662;2023-11-22T04:31:58;102941.09;;;-0.29;100.00
64933;BME280;51446;53.850;10.662;2023-11-22T04:34:24;102937.66;;;-0.39;100.00
64933;BME280;51446;53.850;10.662;2023-11-22T04:36:49;102938.69;;;-0.37;100.00
64933;BME280;51446;53.850;10.662;2023-11-22T04:39:14;102922.84;;;-0.50;100.00
64933;BME280;51446;53.850;10.662;2023-11-22T04:41:40;102927.22;;;-0.49;100.00
64933;BME280;51446;53.850;10.662;2023-11-22T04:44:05;102938.97;;;-0.33;100.00
64933;BME280;51446;53.850;10.662;2023-11-22T04:46:31;102941.28;;;-0.37;100.00
64933;BME280;51446;53.850;10.662;2023-11-22T04:48:57;102939.03;;;-0.51;100.00
64933;BME280;51446;53.850;10.662;2023-11-22T04:51:22;102936.16;;;-0.45;100.00
64933;BME280;51446;53.850;10.662;2023-11-22T04:53:49;102933.09;;;-0.41;100.00
64933;BME280;51446;53.850;10.662;2023-11-22T04:56:14;102934.03;;;-0.49;100.00
64933;BME280;51446;53.850;10.662;2023-11-22T04:58:39;102941.19;;;-0.56;100.00
64933;BME280;51446;53.850;10.662;2023-11-22T05:01:05;102925.75;;;-0.64;100.00
64933;BME280;51446;53.850;10.662;2023-11-22T05:03:30;102931.63;;;-0.57;100.00
64933;BME280;51446;53.850;10.662;2023-11-22T05:05:55;102937.41;;;-0.59;100.00
64933;BME280;51446;53.850;10.662;2023-11-22T05:08:21;102934.13;;;-0.76;100.00
64933;BME280;51446;53.850;10.662;2023-11-22T05:10:46;102948.31;;;-0.53;100.00
64933;BME280;51446;53.850;10.662;2023-11-22T05:13:11;102951.38;;;-0.66;100.00
64933;BME280;51446;53.850;10.662;2023-11-22T05:15:37;102951.84;;;-0.70;100.00
64933;BME280;51446;53.850;10.662;2023-11-22T05:18:02;102951.53;;;-0.64;100.00
64933;BME280;51446;53.850;10.662;2023-11-22T05:20:27;102946.53;;;-0.63;100.00
64933;BME280;51446;53.850;10.662;2023-11-22T05:22:53;102954.25;;;-0.63;100.00
64933;BME280;51446;53.850;10.662;2023-11-22T05:25:18;102958.81;;;-0.69;100.00
64933;BME280;51446;53.850;10.662;2023-11-22T05:27:43;102959.09;;;-0.66;100.00
64933;BME280;51446;53.850;10.662;2023-11-22T05:30:09;102960.91;;;-0.74;100.00
64933;BME280;51446;53.850;10.662;2023-11-22T05:32:35;102964.00;;;-0.78;100.00
64933;BME280;51446;53.850;10.662;2023-11-22T05:35:01;102975.94;;;-0.78;100.00
64933;BME280;51446;53.850;10.662;2023-11-22T05:37:26;102970.06;;;-0.86;100.00
64933;BME280;51446;53.850;10.662;2023-11-22T05:39:51;102983.69;;;-0.96;100.00
64933;BME280;51446;53.850;10.662;2023-11-22T05:42:16;102986.56;;;-0.93;100.00
64933;BME280;51446;53.850;10.662;2023-11-22T05:44:43;102987.16;;;-0.87;100.00
64933;BME280;51446;53.850;10.662;2023-11-22T05:47:08;102983.53;;;-0.80;100.00
64933;BME280;51446;53.850;10.662;2023-11-22T05:49:34;103000.81;;;-0.79;100.00
64933;BME280;51446;53.850;10.662;2023-11-22T05:51:59;102998.09;;;-0.89;100.00
64933;BME280;51446;53.850;10.662;2023-11-22T05:54:25;103003.41;;;-0.88;100.00
64933;BME280;51446;53.850;10.662;2023-11-22T05:56:50;103004.28;;;-0.87;100.00
64933;BME280;51446;53.850;10.662;2023-11-22T05:59:15;103007.16;;;-0.84;100.00
64933;BME280;51446;53.850;10.662;2023-11-22T06:01:40;103013.97;;;-0.67;100.00
64933;BME280;51446;53.850;10.662;2023-11-22T06:04:06;103015.78;;;-0.66;100.00
64933;BME280;51446;53.850;10.662;2023-11-22T06:06:34;103008.06;;;-0.66;100.00
64933;BME280;51446;53.850;10.662;2023-11-22T06:08:59;102994.81;;;-0.34;100.00
64933;BME280;51446;53.850;10.662;2023-11-22T06:11:25;102984.06;;;-0.47;100.00
64933;BME280;51446;53.850;10.662;2023-11-22T06:13:50;102972.50;;;-0.33;100.00
64933;BME280;51446;53.850;10.662;2023-11-22T06:16:15;102971.78;;;-0.41;100.00
64933;BME280;51446;53.850;10.662;2023-11-22T06:18:41;102965.44;;;-0.62;100.00
64933;BME280;51446;53.850;10.662;2023-11-22T06:21:07;102959.88;;;-0.67;100.00
64933;BME280;51446;53.850;10.662;2023-11-22T06:23:33;102961.19;;;-0.53;100.00
64933;BME280;51446;53.850;10.662;2023-11-22T06:25:58;102973.19;;;-0.62;100.00
64933;BME280;51446;53.850;10.662;2023-11-22T06:28:23;102965.88;;;-0.40;100.00
64933;BME280;51446;53.850;10.662;2023-11-22T06:30:49;102961.22;;;-0.16;100.00
64933;BME280;51446;53.850;10.662;2023-11-22T06:33:14;102952.94;;;-0.31;100.00
64933;BME280;51446;53.850;10.662;2023-11-22T06:35:39;102943.16;;;-0.16;100.00
64933;BME280;51446;53.850;10.662;2023-11-22T06:38:05;102946.13;;;-0.03;100.00
64933;BME280;51446;53.850;10.662;2023-11-22T06:40:31;102940.50;;;-0.36;100.00
64933;BME280;51446;53.850;10.662;2023-11-22T06:42:56;102935.31;;;0.01;100.00
64933;BME280;51446;53.850;10.662;2023-11-22T06:45:21;102940.22;;;-0.02;100.00
64933;BME280;51446;53.850;10.662;2023-11-22T06:47:47;102946.09;;;-0.31;100.00
64933;BME280;51446;53.850;10.662;2023-11-22T06:50:12;102950.59;;;-0.20;100.00
64933;BME280;51446;53.850;10.662;2023-11-22T06:52:38;102959.88;;;-0.30;100.00
64933;BME280;51446;53.850;10.662;2023-11-22T06:55:07;102968.00;;;-0.08;100.00
64933;BME280;51446;53.850;10.662;2023-11-22T06:57:34;102973.84;;;-0.28;100.00
64933;BME280;51446;53.850;10.662;2023-11-22T06:59:59;102978.50;;;-0.15;100.00
64933;BME280;51446;53.850;10.662;2023-11-22T07:02:26;102970.06;;;-0.32;100.00
64933;BME280;51446;53.850;10.662;2023-11-22T07:04:51;102949.03;;;-0.09;100.00
64933;BME280;51446;53.850;10.662;2023-11-22T07:07:16;102952.75;;;0.31;100.00
64933;BME280;51446;53.850;10.662;2023-11-22T07:09:42;102950.75;;;0.10;100.00
64933;BME280;51446;53.850;10.662;2023-11-22T07:12:08;102951.78;;;0.21;100.00
64933;BME280;51446;53.850;10.662;2023-11-22T07:14:33;102976.69;;;0.11;100.00
64933;BME280;51446;53.850;10.662;2023-11-22T07:16:58;102976.09;;;0.80;100.00
64933;BME280;51446;53.850;10.662;2023-11-22T07:19:24;102976.75;;;1.07;100.00
64933;BME280;51446;53.850;10.662;2023-11-22T07:21:50;102966.22;;;1.14;100.00
64933;BME280;51446;53.850;10.662;2023-11-22T07:24:15;102967.66;;;0.91;100.00
64933;BME280;51446;53.850;10.662;2023-11-22T07:26:41;102967.72;;;0.82;100.00
64933;BME280;51446;53.850;10.662;2023-11-22T07:29:07;102963.94;;;0.79;100.00
64933;BME280;51446;53.850;10.662;2023-11-22T07:31:33;102973.59;;;0.71;100.00
64933;BME280;51446;53.850;10.662;2023-11-22T07:33:59;102965.84;;;0.52;100.00
64933;BME280;51446;53.850;10.662;2023-11-22T07:36:26;102972.16;;;0.37;100.00
64933;BME280;51446;53.850;10.662;2023-11-22T07:38:53;102968.91;;;0.48;100.00
64933;BME280;51446;53.850;10.662;2023-11-22T07:41:19;102984.78;;;0.33;100.00
64933;BME280;51446;53.850;10.662;2023-11-22T07:43:44;102991.31;;;0.30;100.00
64933;BME280;51446;53.850;10.662;2023-11-22T07:46:09;102990.63;;;0.22;100.00
64933;BME280;51446;53.850;10.662;2023-11-22T07:48:38;103008.16;;;0.35;100.00
64933;BME280;51446;53.850;10.662;2023-11-22T07:51:03;103011.63;;;0.36;100.00
64933;BME280;51446;53.850;10.662;2023-11-22T07:53:30;103020.53;;;0.48;100.00
64933;BME280;51446;53.850;10.662;2023-11-22T07:55:59;103013.41;;;0.45;100.00
64933;BME280;51446;53.850;10.662;2023-11-22T07:58:24;103027.75;;;0.61;100.00
64933;BME280;51446;53.850;10.662;2023-11-22T08:00:49;103027.59;;;0.59;100.00
64933;BME280;51446;53.850;10.662;2023-11-22T08:03:14;103020.28;;;0.64;100.00
64933;BME280;51446;53.850;10.662;2023-11-22T08:05:43;103020.22;;;0.73;100.00
64933;BME280;51446;53.850;10.662;2023-11-22T08:08:13;103013.09;;;0.70;100.00
64933;BME280;51446;53.850;10.662;2023-11-22T08:10:39;103011.28;;;0.88;100.00
64933;BME280;51446;53.850;10.662;2023-11-22T08:13:04;102997.88;;;0.92;100.00
64933;BME280;51446;53.850;10.662;2023-11-22T08:15:30;102994.81;;;0.77;100.00
64933;BME280;51446;53.850;10.662;2023-11-22T08:17:57;102993.06;;;1.06;100.00
64933;BME280;51446;53.850;10.662;2023-11-22T08:20:23;102991.28;;;1.15;100.00
64933;BME280;51446;53.850;10.662;2023-11-22T08:22:50;102983.22;;;1.50;100.00
64933;BME280;51446;53.850;10.662;2023-11-22T08:25:16;102989.09;;;1.78;100.00
64933;BME280;51446;53.850;10.662;2023-11-22T08:27:41;102989.81;;;2.06;100.00
64933;BME280;51446;53.850;10.662;2023-11-22T08:30:08;102976.50;;;2.02;100.00
64933;BME280;51446;53.850;10.662;2023-11-22T08:32:42;102982.03;;;1.86;100.00
64933;BME280;51446;53.850;10.662;2023-11-22T08:35:08;102981.31;;;1.68;100.00
64933;BME280;51446;53.850;10.662;2023-11-22T08:37:34;102988.22;;;1.48;100.00
64933;BME280;51446;53.850;10.662;2023-11-22T08:40:03;102970.81;;;1.56;100.00
64933;BME280;51446;53.850;10.662;2023-11-22T08:42:28;102971.59;;;1.65;100.00
64933;BME280;51446;53.850;10.662;2023-11-22T08:44:54;102963.06;;;1.56;100.00
64933;BME280;51446;53.850;10.662;2023-11-22T08:47:19;102975.81;;;1.44;100.00
64933;BME280;51446;53.850;10.662;2023-11-22T08:49:44;102977.38;;;1.52;100.00
64933;BME280;51446;53.850;10.662;2023-11-22T08:52:09;102987.84;;;1.54;100.00
64933;BME280;51446;53.850;10.662;2023-11-22T08:54:35;102991.13;;;1.62;100.00
64933;BME280;51446;53.850;10.662;2023-11-22T08:57:00;102989.19;;;1.59;100.00
64933;BME280;51446;53.850;10.662;2023-11-22T08:59:25;103006.28;;;1.67;100.00
64933;BME280;51446;53.850;10.662;2023-11-22T09:01:51;102996.06;;;1.69;100.00
64933;BME280;51446;53.850;10.662;2023-11-22T09:04:16;102983.16;;;1.79;100.00
64933;BME280;51446;53.850;10.662;2023-11-22T09:06:43;102991.69;;;1.78;100.00
64933;BME280;51446;53.850;10.662;2023-11-22T09:09:08;102982.78;;;1.85;100.00
64933;BME280;51446;53.850;10.662;2023-11-22T09:11:34;102971.69;;;1.96;100.00
64933;BME280;51446;53.850;10.662;2023-11-22T09:14:00;102983.94;;;1.88;100.00
64933;BME280;51446;53.850;10.662;2023-11-22T09:16:29;102991.28;;;1.73;100.00
64933;BME280;51446;53.850;10.662;2023-11-22T09:18:59;102990.06;;;1.60;100.00
64933;BME280;51446;53.850;10.662;2023-11-22T09:21:26;102977.34;;;1.42;100.00
64933;BME280;51446;53.850;10.662;2023-11-22T09:23:51;102969.97;;;1.47;100.00
64933;BME280;51446;53.850;10.662;2023-11-22T09:26:16;102972.78;;;1.39;100.00
64933;BME280;51446;53.850;10.662;2023-11-22T09:28:41;102988.16;;;1.38;100.00
64933;BME280;51446;53.850;10.662;2023-11-22T09:31:07;102992.09;;;1.43;100.00
64933;BME280;51446;53.850;10.662;2023-11-22T09:33:33;102998.50;;;1.57;100.00
64933;BME280;51446;53.850;10.662;2023-11-22T09:35:58;102996.34;;;1.72;100.00
64933;BME280;51446;53.850;10.662;2023-11-22T09:38:23;103014.03;;;1.67;100.00
64933;BME280;51446;53.850;10.662;2023-11-22T09:40:49;103025.44;;;1.80;100.00
64933;BME280;51446;53.850;10.662;2023-11-22T09:43:16;103016.31;;;1.94;100.00
64933;BME280;51446;53.850;10.662;2023-11-22T09:45:43;103007.69;;;2.03;100.00
64933;BME280;51446;53.850;10.662;2023-11-22T09:48:16;103022.59;;;2.16;100.00
64933;BME280;51446;53.850;10.662;2023-11-22T09:51:19;103025.94;;;2.05;100.00
64933;BME280;51446;53.850;10.662;2023-11-22T09:54:00;103026.84;;;2.16;100.00
64933;BME280;51446;53.850;10.662;2023-11-22T09:56:31;103023.34;;;2.05;100.00
64933;BME280;51446;53.850;10.662;2023-11-22T09:58:59;103019.38;;;2.29;100.00
64933;BME280;51446;53.850;10.662;2023-11-22T10:01:27;103003.03;;;2.30;100.00
64933;BME280;51446;53.850;10.662;2023-11-22T10:03:54;103006.69;;;2.42;100.00
64933;BME280;51446;53.850;10.662;2023-11-22T10:06:19;103008.22;;;2.40;100.00
64933;BME280;51446;53.850;10.662;2023-11-22T10:08:45;103015.75;;;2.58;100.00
64933;BME280;51446;53.850;10.662;2023-11-22T10:11:15;103003.84;;;2.39;100.00
64933;BME280;51446;53.850;10.662;2023-11-22T10:13:42;102986.72;;;2.52;100.00
64933;BME280;51446;53.850;10.662;2023-11-22T10:16:13;102978.22;;;2.42;100.00
64933;BME280;51446;53.850;10.662;2023-11-22T10:18:41;102968.34;;;2.59;100.00
64933;BME280;51446;53.850;10.662;2023-11-22T10:21:18;102964.22;;;2.51;100.00
64933;BME280;51446;53.850;10.662;2023-11-22T10:23:44;102970.94;;;2.49;100.00
64933;BME280;51446;53.850;10.662;2023-11-22T10:26:10;102969.22;;;2.90;100.00
64933;BME280;51446;53.850;10.662;2023-11-22T10:28:35;102958.84;;;2.90;100.00
64933;BME280;51446;53.850;10.662;2023-11-22T10:31:07;102943.78;;;2.97;100.00
64933;BME280;51446;53.850;10.662;2023-11-22T10:33:33;102926.13;;;3.13;100.00
64933;BME280;51446;53.850;10.662;2023-11-22T10:35:58;102932.50;;;3.06;100.00
64933;BME280;51446;53.850;10.662;2023-11-22T10:38:24;102931.38;;;2.92;100.00
64933;BME280;51446;53.850;10.662;2023-11-22T10:40:49;102919.84;;;2.89;100.00
64933;BME280;51446;53.850;10.662;2023-11-22T10:43:17;102917.69;;;2.73;100.00
64933;BME280;51446;53.850;10.662;2023-11-22T10:45:44;102910.81;;;2.73;100.00
64933;BME280;51446;53.850;10.662;2023-11-22T10:48:15;102893.59;;;2.74;100.00
64933;BME280;51446;53.850;10.662;2023-11-22T10:50:44;102910.16;;;2.76;100.00
64933;BME280;51446;53.850;10.662;2023-11-22T10:53:12;102901.72;;;2.89;100.00
64933;BME280;51446;53.850;10.662;2023-11-22T10:55:45;102888.78;;;2.78;100.00
64933;BME280;51446;53.850;10.662;2023-11-22T10:58:13;102885.66;;;3.15;100.00
64933;BME280;51446;53.850;10.662;2023-11-22T11:00:40;102882.81;;;3.12;100.00
64933;BME280;51446;53.850;10.662;2023-11-22T11:03:14;102872.56;;;2.91;100.00
64933;BME280;51446;53.850;10.662;2023-11-22T11:05:56;102872.50;;;3.02;100.00
64933;BME280;51446;53.850;10.662;2023-11-22T11:08:25;102847.97;;;2.76;100.00
64933;BME280;51446;53.850;10.662;2023-11-22T11:10:52;102845.44;;;2.66;100.00
64933;BME280;51446;53.850;10.662;2023-11-22T11:13:19;102855.50;;;2.73;100.00
64933;BME280;51446;53.850;10.662;2023-11-22T11:15:45;102853.09;;;2.64;100.00
64933;BME280;51446;53.850;10.662;2023-11-22T11:18:13;102831.94;;;2.70;100.00
64933;BME280;51446;53.850;10.662;2023-11-22T11:23:27;102810.59;;;2.62;100.00
64933;BME280;51446;53.850;10.662;2023-11-22T11:25:58;102805.28;;;2.71;100.00
64933;BME280;51446;53.850;10.662;2023-11-22T11:28:25;102803.78;;;2.42;100.00
64933;BME280;51446;53.850;10.662;2023-11-22T11:30:51;102776.34;;;2.44;100.00
64933;BME280;51446;53.850;10.662;2023-11-22T11:33:27;102749.13;;;2.49;100.00
64933;BME280;51446;53.850;10.662;2023-11-22T11:35:57;102757.47;;;2.67;100.00
64933;BME280;51446;53.850;10.662;2023-11-22T11:38:28;102760.06;;;2.89;100.00
64933;BME280;51446;53.850;10.662;2023-11-22T11:40:55;102761.72;;;2.77;100.00
64933;BME280;51446;53.850;10.662;2023-11-22T11:43:39;102772.41;;;3.14;100.00
64933;BME280;51446;53.850;10.662;2023-11-22T11:46:07;102756.84;;;3.14;100.00
64933;BME280;51446;53.850;10.662;2023-11-22T11:48:33;102760.09;;;3.11;100.00
64933;BME280;51446;53.850;10.662;2023-11-22T11:50:58;102755.56;;;3.09;100.00
64933;BME280;51446;53.850;10.662;2023-11-22T11:53:24;102744.47;;;3.22;100.00
64933;BME280;51446;53.850;10.662;2023-11-22T11:55:49;102729.84;;;3.34;100.00
64933;BME280;51446;53.850;10.662;2023-11-22T11:58:16;102704.53;;;3.20;100.00
64933;BME280;51446;53.850;10.662;2023-11-22T12:00:42;102698.69;;;3.22;100.00
64933;BME280;51446;53.850;10.662;2023-11-22T12:03:08;102729.16;;;3.25;100.00
64933;BME280;51446;53.850;10.662;2023-11-22T12:05:38;102752.97;;;3.09;100.00
64933;BME280;51446;53.850;10.662;2023-11-22T12:08:04;102772.63;;;3.17;100.00
64933;BME280;51446;53.850;10.662;2023-11-22T12:10:30;102772.91;;;3.32;100.00
64933;BME280;51446;53.850;10.662;2023-11-22T12:12:55;102769.44;;;3.09;100.00
64933;BME280;51446;53.850;10.662;2023-11-22T12:15:21;102750.31;;;3.19;100.00
64933;BME280;51446;53.850;10.662;2023-11-22T12:17:48;102750.50;;;3.10;100.00
64933;BME280;51446;53.850;10.662;2023-11-22T12:20:16;102749.22;;;2.83;100.00
64933;BME280;51446;53.850;10.662;2023-11-22T12:22:44;102745.44;;;2.90;100.00
64933;BME280;51446;53.850;10.662;2023-11-22T12:25:11;102725.38;;;2.87;100.00
64933;BME280;51446;53.850;10.662;2023-11-22T12:27:43;102721.22;;;2.89;100.00
64933;BME280;51446;53.850;10.662;2023-11-22T12:30:16;102726.69;;;2.82;100.00
64933;BME280;51446;53.850;10.662;2023-11-22T12:32:52;102723.50;;;2.74;100.00
64933;BME280;51446;53.850;10.662;2023-11-22T12:35:17;102731.28;;;2.74;100.00
64933;BME280;51446;53.850;10.662;2023-11-22T12:37:43;102715.97;;;2.77;100.00